Acampo, California
Current Conditions -  °F | °C
As of 4:55 PM on Friday 28 Nov 2014 (Local Time) from KSCK Reporting Station
Haze Haze  
Wind Chill: 61°   Ceiling: Unl
Heat Index: 61°   Visibility: 5mi
Dew Point: 45°   Wind: 3mph
Humidity: 56%   Direction: 260°W
Pressure: 29.87"   Gusts: NA
Location:  38.17°N, 121.28°W
Report Text: KSCK 290055Z 26003KT 5SM HZ CLR 16/07 A2987 RMK AO2 SLP113 T01610072
Loading
Personal Weather Stations






























Interactive Weather Map New forecast layout! Learn more

10-Day Weather Forecast

Advertisements
Track Severe Weather on mobile